Time;durP1;ratioP1;P1;durP2;ratioP2;P2;SDS_P1;SDS_P2;PMS_P1;PMS_P2;Temp;Humidity;BMP_temperature;BMP_pressure;BME280_temperature;BME280_humidity;BME280_pressure;Samples;Min_cycle;Max_cycle;Signal;HPM_P1;HPM_P2
2023/03/24 00:01:18;;;;;;;4.95;3.78;;;;;;;10.32;100.00;163262.44;5070605;28;20041;-65
2023/03/24 00:03:50;;;;;;;7.95;4.35;;;;;;;10.31;100.00;163259.78;5072028;28;20020;-65
2023/03/24 00:06:17;;;;;;;7.53;4.95;;;;;;;10.31;100.00;163261.13;5068822;28;20454;-65
2023/03/24 00:08:46;;;;;;;10.35;4.97;;;;;;;10.34;100.00;163267.84;5071669;28;20040;-66
2023/03/24 00:11:13;;;;;;;6.90;4.40;;;;;;;10.38;100.00;163278.72;5070569;28;20048;-65
2023/03/24 00:13:39;;;;;;;5.78;4.53;;;;;;;10.38;100.00;163278.72;5072093;28;20079;-65
2023/03/24 00:16:11;;;;;;;5.97;4.72;;;;;;;10.36;100.00;163273.25;5069793;28;20036;-65
2023/03/24 00:18:38;;;;;;;10.05;5.65;;;;;;;10.37;100.00;163276.03;5071724;28;20166;-65
2023/03/24 00:21:05;;;;;;;23.10;7.32;;;;;;;10.38;100.00;163278.72;5070005;28;20044;-65
2023/03/24 00:23:32;;;;;;;7.30;3.78;;;;;;;10.39;100.00;163281.38;5071569;28;20407;-65
2023/03/24 00:26:11;;;;;;;17.13;6.63;;;;;;;10.44;100.00;163294.91;5069835;28;20039;-65
2023/03/24 00:28:36;;;;;;;;;;;;;;;10.44;100.00;163294.91;5072328;28;20028;-65
2023/03/24 00:31:03;;;;;;;19.17;6.40;;;;;;;10.45;100.00;163296.25;5069585;28;19912;-65
2023/03/24 00:33:31;;;;;;;6.25;4.75;;;;;;;10.46;100.00;163300.28;5071951;28;20065;-65
2023/03/24 00:36:07;;;;;;;8.85;4.93;;;;;;;10.41;100.00;163286.81;5069373;28;20074;-65
2023/03/24 00:38:33;;;;;;;6.45;4.68;;;;;;;10.47;100.00;163301.66;5071077;28;20028;-66
2023/03/24 00:41:00;;;;;;;6.38;5.05;;;;;;;10.47;100.00;163301.66;5069806;28;20037;-65
2023/03/24 00:43:26;;;;;;;5.93;4.22;;;;;;;10.46;100.00;163300.28;5071317;28;20493;-66
2023/03/24 00:46:00;;;;;;;8.18;4.97;;;;;;;10.46;100.00;163300.28;5069515;28;20040;-65
2023/03/24 00:48:25;;;;;;;9.27;7.20;;;;;;;10.46;100.00;163300.28;5071783;28;20027;-65
2023/03/24 00:50:51;;;;;;;7.35;6.03;;;;;;;10.48;100.00;163305.69;5069857;28;20033;-65
2023/03/24 00:53:18;;;;;;;6.40;4.53;;;;;;;10.48;100.00;163305.69;5071571;28;20070;-65
2023/03/24 00:55:46;;;;;;;6.15;4.05;;;;;;;10.47;100.00;163301.66;5069399;28;20044;-65
2023/03/24 00:58:17;;;;;;;7.35;4.45;;;;;;;10.48;100.00;163304.38;5071740;28;20509;-64
2023/03/24 01:00:44;;;;;;;8.38;4.90;;;;;;;10.47;100.00;163303.00;5069654;28;20093;-65
2023/03/24 01:03:09;;;;;;;11.05;4.13;;;;;;;10.48;100.00;163203.53;5071302;28;20514;-65
2023/03/24 01:05:35;;;;;;;6.68;5.40;;;;;;;10.51;100.00;161919.47;5070205;28;20044;-65
2023/03/24 01:08:05;;;;;;;7.57;4.57;;;;;;;10.49;100.00;160207.00;5070576;28;20078;-64
2023/03/24 01:10:41;;;;;;;8.38;4.57;;;;;;;10.51;100.00;157179.28;5069722;28;20127;-65
2023/03/24 01:13:07;;;;;;;7.38;4.10;;;;;;;10.54;100.00;155199.19;5071186;28;20020;-65
2023/03/24 01:15:35;;;;;;;8.85;5.55;;;;;;;10.54;100.00;153789.47;5069553;28;20447;-65
2023/03/24 01:18:01;;;;;;;5.43;4.10;;;;;;;10.57;100.00;153443.09;5070429;28;20024;-64
2023/03/24 01:20:31;;;;;;;6.28;4.40;;;;;;;10.59;100.00;153448.16;5069687;28;20056;-64
2023/03/24 01:22:58;;;;;;;5.85;4.50;;;;;;;10.66;100.00;155582.88;5070611;28;20383;-64
2023/03/24 01:25:24;;;;;;;5.32;3.95;;;;;;;10.71;100.00;158525.09;5069712;28;20055;-64
2023/03/24 01:27:51;;;;;;;6.22;3.92;;;;;;;10.76;100.00;161851.03;5071027;28;20021;-65
2023/03/24 01:30:21;;;;;;;19.75;5.30;;;;;;;10.77;100.00;163381.28;5069220;28;20044;-65
2023/03/24 01:32:47;;;;;;;5.30;4.00;;;;;;;10.83;100.00;163394.81;5070820;28;20043;-64
2023/03/24 01:35:12;;;;;;;5.13;4.05;;;;;;;10.89;100.00;163411.00;5069347;28;20462;-64
2023/03/24 01:37:38;;;;;;;5.82;4.05;;;;;;;10.89;100.00;163411.00;5070524;28;20126;-65
2023/03/24 01:40:08;;;;;;;5.07;4.05;;;;;;;10.90;100.00;163413.72;5069204;28;20406;-64
2023/03/24 01:42:34;;;;;;;5.30;4.22;;;;;;;10.95;100.00;163428.53;5071206;28;20082;-64
2023/03/24 01:45:20;;;;;;;6.85;4.05;;;;;;;10.97;100.00;163431.22;5068939;28;20036;-63
2023/03/24 01:47:46;;;;;;;4.15;3.75;;;;;;;10.99;100.00;163437.97;5069640;28;20024;-63
2023/03/24 01:50:11;;;;;;;4.82;4.43;;;;;;;10.99;100.00;163436.66;5069118;28;20053;-63
2023/03/24 01:52:36;;;;;;;4.53;4.07;;;;;;;10.98;100.00;163435.31;5070353;28;20021;-63
2023/03/24 01:55:10;;;;;;;14.45;6.40;;;;;;;11.03;100.00;163447.44;5069022;28;20040;-63
2023/03/24 01:57:39;;;;;;;4.45;3.90;;;;;;;11.01;100.00;163443.38;5070502;28;20033;-63
2023/03/24 02:00:11;;;;;;;6.07;4.05;;;;;;;11.03;100.00;163448.81;5068696;28;20036;-64
2023/03/24 02:02:39;;;;;;;5.13;4.13;;;;;;;11.07;100.00;163459.59;5070888;28;20028;-63
2023/03/24 02:05:07;;;;;;;7.50;4.28;;;;;;;11.03;100.00;163448.81;5068872;28;20102;-63
2023/03/24 02:07:51;;;;;;;6.15;5.55;;;;;;;11.05;100.00;163454.22;5070229;28;20500;-63
2023/03/24 02:10:19;;;;;;;3.70;3.40;;;;;;;11.07;100.00;163459.59;5069055;28;20090;-63
2023/03/24 02:12:45;;;;;;;5.43;3.78;;;;;;;11.13;100.00;163473.13;5070423;28;20072;-63
2023/03/24 02:15:12;;;;;;;5.95;3.38;;;;;;;11.16;100.00;163481.19;5068861;28;20044;-63
2023/03/24 02:17:49;;;;;;;5.00;3.40;;;;;;;11.16;100.00;163481.19;5070296;28;20503;-62
2023/03/24 02:20:41;;;;;;;6.47;4.35;;;;;;;11.17;100.00;163483.91;5067407;28;20515;-62
2023/03/24 02:23:18;;;;;;;4.97;3.88;;;;;;;11.16;100.00;163481.19;5070549;28;20096;-63
2023/03/24 02:26:19;;;;;;;4.57;3.38;;;;;;;11.13;100.00;163473.13;5068877;28;20173;-62
2023/03/24 02:29:04;;;;;;;9.52;3.78;;;;;;;11.14;100.00;163477.16;5046572;28;20028;-63
2023/03/24 02:31:56;;;;;;;6.82;3.40;;;;;;;11.11;100.00;163469.03;5068817;28;20039;-63
2023/03/24 02:34:41;;;;;;;10.10;5.18;;;;;;;11.09;100.00;163465.00;5068947;28;20024;-63
2023/03/24 02:37:17;;;;;;;3.70;3.30;;;;;;;11.08;100.00;163462.28;5070354;28;20028;-63
2023/03/24 02:39:42;;;;;;;5.18;4.68;;;;;;;11.09;100.00;163465.00;5068771;28;20054;-63
2023/03/24 02:42:27;;;;;;;6.82;4.03;;;;;;;11.09;100.00;163465.00;5070185;28;20519;-64
2023/03/24 02:45:10;;;;;;;7.63;3.92;;;;;;;11.10;100.00;163466.31;5067946;28;20044;-64
2023/03/24 02:48:08;;;;;;;4.43;3.55;;;;;;;11.09;100.00;163465.00;5070314;28;20024;-64
2023/03/24 02:50:43;;;;;;;;;;;;;;;11.11;100.00;163470.41;5068782;28;20045;-64
2023/03/24 02:53:19;;;;;;;5.05;3.88;;;;;;;11.13;100.00;163473.13;5070119;28;20065;-64
2023/03/24 02:56:10;;;;;;;6.65;4.15;;;;;;;11.13;100.00;163474.44;5068189;28;20452;-64
2023/03/24 02:58:43;;;;;;;6.78;5.22;;;;;;;11.14;100.00;163477.16;5070196;28;20035;-65
2023/03/24 03:01:17;;;;;;;5.88;3.97;;;;;;;11.16;100.00;163481.19;5072380;28;20090;-64
2023/03/24 03:03:52;;;;;;;4.88;3.95;;;;;;;11.16;100.00;163481.19;5073513;28;20028;-64
2023/03/24 03:06:27;;;;;;;6.75;3.97;;;;;;;11.15;100.00;163478.47;5071750;28;20521;-64
2023/03/24 03:08:56;;;;;;;5.70;4.55;;;;;;;11.20;100.00;163492.03;5073448;28;20056;-64
2023/03/24 03:11:22;;;;;;;5.60;5.00;;;;;;;11.19;100.00;163489.31;5071972;28;20123;-64
2023/03/24 03:13:50;;;;;;;5.20;4.43;;;;;;;11.20;100.00;163450.56;5072890;28;20119;-63
2023/03/24 03:16:24;;;;;;;6.15;4.95;;;;;;;11.16;100.00;162904.81;5072066;28;20545;-63
2023/03/24 03:18:55;;;;;;;5.30;4.80;;;;;;;11.20;100.00;161278.00;5073134;28;20111;-64
2023/03/24 03:21:24;;;;;;;5.00;4.50;;;;;;;11.23;100.00;160180.75;5071609;28;20058;-64
2023/03/24 03:24:01;;;;;;;8.48;6.00;;;;;;;11.21;100.00;159882.59;5073423;28;20024;-64
2023/03/24 03:26:31;;;;;;;7.03;4.93;;;;;;;11.26;100.00;159232.84;5071715;28;20045;-64
2023/03/24 03:29:00;;;;;;;5.32;4.13;;;;;;;11.28;100.00;160431.63;5072568;28;20464;-64
2023/03/24 03:31:36;;;;;;;6.18;5.18;;;;;;;11.30;100.00;161934.81;5071720;28;20547;-64
2023/03/24 03:34:16;;;;;;;5.45;4.97;;;;;;;11.34;100.00;163528.44;5072842;28;20032;-64
2023/03/24 03:36:54;;;;;;;5.00;4.60;;;;;;;11.34;100.00;163529.84;5071203;28;20060;-64
2023/03/24 03:39:28;;;;;;;12.35;6.70;;;;;;;11.38;100.00;163540.63;5071851;28;20441;-64
2023/03/24 03:41:54;;;;;;;5.55;5.05;;;;;;;11.39;100.00;163543.31;5072876;28;20039;-64
2023/03/24 03:44:19;;;;;;;6.05;4.90;;;;;;;11.42;100.00;163550.06;5071486;28;20016;-63
2023/03/24 03:46:45;;;;;;;7.15;6.10;;;;;;;11.41;100.00;163548.75;5072695;28;20020;-64
2023/03/24 03:49:10;;;;;;;7.80;6.80;;;;;;;11.37;100.00;163537.91;5073209;28;20044;-64
2023/03/24 03:51:36;;;;;;;8.05;5.15;;;;;;;11.35;100.00;163532.53;5070839;28;20101;-63
2023/03/24 03:54:07;;;;;;;7.30;6.07;;;;;;;11.29;100.00;163514.97;5072585;28;20025;-63
2023/03/24 03:56:35;;;;;;;7.32;6.22;;;;;;;11.28;100.00;163513.63;5071044;28;20503;-63
2023/03/24 03:59:01;;;;;;;5.55;5.03;;;;;;;11.30;100.00;163519.00;5071898;28;20531;-63
2023/03/24 04:01:30;;;;;;;4.68;4.28;;;;;;;11.32;100.00;163523.09;5071139;28;20037;-63
2023/03/24 04:04:19;;;;;;;5.35;4.95;;;;;;;11.32;100.00;163524.41;5072095;28;20490;-63
2023/03/24 04:06:58;;;;;;;;;;;;;;;11.31;100.00;163521.72;5071500;28;20140;-64
2023/03/24 04:09:43;;;;;;;15.85;5.82;;;;;;;11.34;100.00;163528.44;5071191;28;20046;-65
2023/03/24 04:12:47;;;;;;;6.20;4.00;;;;;;;11.33;100.00;163527.13;5071167;28;20036;-63
2023/03/24 04:15:29;;;;;;;5.55;3.70;;;;;;;11.35;100.00;163532.53;5071111;28;20128;-63
2023/03/24 04:18:17;;;;;;;3.13;2.90;;;;;;;11.26;100.00;163509.56;5071898;28;20331;-64
2023/03/24 04:20:45;;;;;;;;;;;;;;;11.16;100.00;163481.19;5065008;28;20506;-64
2023/03/24 04:23:25;;;;;;;4.15;2.22;;;;;;;11.16;100.00;163481.19;5072333;28;19987;-64
2023/03/24 04:26:15;;;;;;;2.97;2.75;;;;;;;11.11;100.00;163470.41;5070570;28;20495;-65
2023/03/24 04:29:04;;;;;;;5.80;3.25;;;;;;;11.03;100.00;163448.81;5071827;28;20020;-63
2023/03/24 04:31:48;;;;;;;6.18;3.00;;;;;;;10.92;100.00;163419.06;5070143;28;20041;-63
2023/03/24 04:34:19;;;;;;;2.92;2.65;;;;;;;10.84;100.00;163397.47;5068739;28;20032;-61
2023/03/24 04:37:02;;;;;;;2.63;2.40;;;;;;;10.79;100.00;163386.69;5052078;28;20025;-61
2023/03/24 04:39:33;;;;;;;4.35;2.15;;;;;;;10.55;100.00;163323.25;5062739;28;20121;-61
2023/03/24 04:42:03;;;;;;;2.75;2.42;;;;;;;10.45;100.00;163297.63;5071290;28;20051;-61
2023/03/24 04:44:31;;;;;;;3.65;3.28;;;;;;;10.32;100.00;163263.81;5070628;28;20073;-61
2023/03/24 04:46:59;;;;;;;4.55;3.05;;;;;;;10.21;100.00;163232.78;5071466;28;20027;-61
2023/03/24 04:49:25;;;;;;;3.13;2.20;;;;;;;10.11;100.00;163208.47;5069895;28;20426;-61
2023/03/24 04:51:52;;;;;;;7.53;3.13;;;;;;;9.95;100.00;163165.28;5071594;28;20442;-61
2023/03/24 04:54:19;;;;;;;4.22;2.78;;;;;;;9.90;100.00;163153.19;5070583;28;20024;-62
2023/03/24 04:56:48;;;;;;;5.40;2.40;;;;;;;9.84;100.00;163138.34;5070784;28;20032;-61
2023/03/24 04:59:14;;;;;;;;;;;;;;;9.77;100.00;163118.06;5070007;28;20032;-62
2023/03/24 05:01:40;;;;;;;5.28;2.55;;;;;;;9.65;100.00;163087.03;5071101;28;19962;-61
2023/03/24 05:04:05;;;;;;;7.80;3.13;;;;;;;9.62;100.00;163080.31;5070971;28;20028;-61
2023/03/24 05:06:31;;;;;;;8.13;2.70;;;;;;;9.57;100.00;163066.81;5069924;28;20040;-60
2023/03/24 05:08:58;;;;;;;9.55;2.72;;;;;;;9.56;100.00;163064.13;5071398;28;20029;-61
2023/03/24 05:11:24;;;;;;;6.30;3.00;;;;;;;9.50;100.00;163049.28;5069326;28;20050;-61
2023/03/24 05:13:50;;;;;;;4.80;2.55;;;;;;;9.50;100.00;163049.28;5071141;28;20028;-61
2023/03/24 05:16:15;;;;;;;5.68;2.97;;;;;;;9.48;100.00;163043.91;5069790;28;20041;-61
2023/03/24 05:18:41;;;;;;;4.07;2.90;;;;;;;9.51;100.00;163051.97;5070411;28;20530;-61
2023/03/24 05:21:06;;;;;;;2.35;2.13;;;;;;;9.56;100.00;163062.78;5069604;28;20036;-60
2023/03/24 05:23:32;;;;;;;7.55;2.97;;;;;;;9.56;100.00;163062.78;5071263;28;20031;-60
2023/03/24 05:25:57;;;;;;;4.80;2.70;;;;;;;9.53;100.00;163057.38;5068782;28;20044;-61
2023/03/24 05:28:22;;;;;;;11.95;4.72;;;;;;;9.50;100.00;163049.28;5071102;28;20086;-60
2023/03/24 05:30:48;;;;;;;11.18;4.07;;;;;;;9.53;100.00;163057.38;5069348;28;20036;-59
2023/03/24 05:33:13;;;;;;;6.32;4.10;;;;;;;9.53;100.00;163056.06;5070570;28;20028;-59
2023/03/24 05:35:39;;;;;;;7.28;2.90;;;;;;;9.58;100.00;163068.16;5069429;28;20044;-59
2023/03/24 05:38:04;;;;;;;24.80;6.85;;;;;;;9.49;100.00;163045.25;5070731;28;20021;-59
2023/03/24 05:40:30;;;;;;;7.57;3.60;;;;;;;9.49;100.00;163045.25;5068982;28;20132;-59
2023/03/24 05:42:55;;;;;;;9.43;3.45;;;;;;;9.46;100.00;163037.13;5070554;28;20029;-60
2023/03/24 05:45:20;;;;;;;9.55;3.92;;;;;;;9.43;100.00;163030.38;5069226;28;20041;-59
2023/03/24 05:47:47;;;;;;;15.70;4.65;;;;;;;9.41;100.00;163025.03;5070386;28;20032;-58
2023/03/24 05:50:12;;;;;;;9.27;4.75;;;;;;;9.38;100.00;163016.91;5069091;28;20059;-58
2023/03/24 05:52:37;;;;;;;9.75;4.20;;;;;;;9.38;100.00;163015.59;5070580;28;20492;-58
2023/03/24 05:55:04;;;;;;;10.73;3.90;;;;;;;9.40;100.00;163020.94;5068881;28;20496;-58
2023/03/24 05:57:29;;;;;;;14.30;4.47;;;;;;;9.40;100.00;163022.31;5070409;28;20110;-58
2023/03/24 05:59:58;;;;;;;11.65;4.22;;;;;;;9.41;100.00;163023.66;5068867;28;20049;-57
2023/03/24 06:02:23;;;;;;;;;;;;;;;9.43;100.00;163030.38;5071037;28;20029;-58
2023/03/24 06:04:50;;;;;;;11.32;3.90;;;;;;;9.36;100.00;163012.88;5068370;28;19978;-57
2023/03/24 06:07:16;;;;;;;12.85;5.90;;;;;;;9.34;100.00;163006.16;5070766;28;20040;-58
2023/03/24 06:09:45;;;;;;;18.58;8.00;;;;;;;9.30;100.00;162995.34;5068886;28;20116;-58
2023/03/24 06:12:11;;;;;;;19.58;4.78;;;;;;;9.26;100.00;162985.91;5070067;28;20471;-58
2023/03/24 06:14:37;;;;;;;19.70;6.70;;;;;;;9.30;100.00;162995.34;5069182;28;20036;-58
2023/03/24 06:17:03;;;;;;;31.77;5.38;;;;;;;9.32;100.00;163002.06;5070148;28;20024;-58
2023/03/24 06:19:31;;;;;;;28.65;6.82;;;;;;;9.38;100.00;163016.91;5068460;28;20059;-58
2023/03/24 06:21:59;;;;;;;16.73;5.33;;;;;;;9.37;100.00;163014.22;5070095;28;20487;-58
2023/03/24 06:24:25;;;;;;;21.00;4.65;;;;;;;9.45;100.00;163035.81;5069008;28;20024;-58
2023/03/24 06:26:50;;;;;;;15.40;5.20;;;;;;;9.43;100.00;163030.38;5069754;28;20023;-58
2023/03/24 06:29:19;;;;;;;21.75;6.20;;;;;;;9.53;100.00;163057.38;5068971;28;20021;-58
2023/03/24 06:31:45;;;;;;;22.33;5.60;;;;;;;9.44;100.00;163033.09;5070213;28;20360;-58
2023/03/24 06:34:11;;;;;;;17.70;4.38;;;;;;;9.52;100.00;163054.69;5071560;28;20025;-58
2023/03/24 06:36:37;;;;;;;21.13;5.55;;;;;;;9.56;100.00;163062.78;5072699;28;20055;-58
2023/03/24 06:39:04;;;;;;;13.77;5.57;;;;;;;9.55;100.00;163060.09;5073951;28;20020;-58
2023/03/24 06:41:30;;;;;;;18.83;5.73;;;;;;;9.58;100.00;163068.16;5072154;28;20028;-58
2023/03/24 06:43:56;;;;;;;11.40;5.63;;;;;;;9.59;100.00;163072.25;5073838;28;20078;-58
2023/03/24 06:46:21;;;;;;;14.82;5.30;;;;;;;9.57;100.00;163065.50;5072587;28;20040;-58
2023/03/24 06:48:47;;;;;;;26.38;5.90;;;;;;;9.60;100.00;163073.56;5073347;28;20029;-58
2023/03/24 06:51:13;;;;;;;26.00;5.75;;;;;;;9.71;100.00;163103.25;5070052;28;20144;-58
2023/03/24 06:53:40;;;;;;;20.52;6.10;;;;;;;9.81;100.00;163130.22;5071934;28;20411;-58
2023/03/24 06:56:06;;;;;;;11.55;4.18;;;;;;;9.81;100.00;163130.22;5056114;28;20037;-57
2023/03/24 06:58:32;;;;;;;15.93;7.00;;;;;;;9.73;100.00;163108.63;5054004;28;20037;-57
2023/03/24 07:01:00;;;;;;;12.75;5.82;;;;;;;9.78;100.00;163120.78;5066683;28;20123;-58
2023/03/24 07:03:25;;;;;;;16.50;6.97;;;;;;;9.76;100.00;163115.38;5073617;28;20025;-57
2023/03/24 07:05:51;;;;;;;13.57;6.90;;;;;;;9.77;100.00;163118.06;5072030;28;20598;-58
2023/03/24 07:08:16;;;;;;;21.48;7.13;;;;;;;9.80;100.00;163127.50;5073645;28;20024;-58
2023/03/24 07:10:42;;;;;;;28.80;7.90;;;;;;;9.88;100.00;163146.41;5057059;28;20044;-58
2023/03/24 07:13:07;;;;;;;14.82;6.22;;;;;;;9.91;100.00;163154.50;5053493;28;20083;-58
2023/03/24 07:15:33;;;;;;;14.60;4.97;;;;;;;9.88;100.00;163146.41;5052129;28;20044;-58
2023/03/24 07:17:59;;;;;;;10.02;6.57;;;;;;;9.93;100.00;163161.25;5052742;28;20032;-57
2023/03/24 07:20:25;;;;;;;17.23;5.95;;;;;;;9.98;100.00;163173.41;5058334;28;20048;-58
2023/03/24 07:22:57;;;;;;;22.33;6.85;;;;;;;9.98;100.00;163173.41;5073480;28;20032;-58
2023/03/24 07:25:22;;;;;;;16.65;6.97;;;;;;;9.95;100.00;163165.28;5071654;28;20039;-57
2023/03/24 07:27:48;;;;;;;12.88;5.25;;;;;;;10.03;100.00;163185.56;5073443;28;20060;-57
2023/03/24 07:30:13;;;;;;;12.15;4.97;;;;;;;10.07;100.00;163196.31;5071610;28;20106;-58
2023/03/24 07:32:39;;;;;;;18.65;6.63;;;;;;;10.15;100.00;163219.28;5072843;28;20236;-58
2023/03/24 07:35:09;;;;;;;14.68;5.00;;;;;;;10.22;100.00;163235.47;5071265;28;20123;-58
2023/03/24 07:37:36;;;;;;;24.75;6.82;;;;;;;10.22;100.00;163235.47;5073308;28;20111;-57
2023/03/24 07:40:05;;;;;;;16.83;6.93;;;;;;;10.26;100.00;163247.63;5071317;28;20071;-57
2023/03/24 07:42:31;;;;;;;11.07;5.35;;;;;;;10.34;100.00;163267.84;5072896;28;20046;-57
2023/03/24 07:44:56;;;;;;;18.75;7.10;;;;;;;10.40;100.00;163282.78;5070841;28;20041;-58
2023/03/24 07:47:22;;;;;;;25.85;7.15;;;;;;;10.39;100.00;163280.06;5072215;28;20066;-57
2023/03/24 07:49:47;;;;;;;20.35;6.88;;;;;;;10.58;100.00;163330.00;5070994;28;20048;-58
2023/03/24 07:52:12;;;;;;;19.92;6.30;;;;;;;10.74;100.00;163373.22;5072946;28;20036;-58
2023/03/24 07:54:38;;;;;;;14.85;6.43;;;;;;;10.85;100.00;163400.19;5071159;28;20037;-57
2023/03/24 07:57:03;;;;;;;16.15;6.10;;;;;;;10.99;100.00;163436.66;5072480;28;20021;-57
2023/03/24 07:59:29;;;;;;;20.13;6.65;;;;;;;11.06;100.00;163456.88;5071287;28;20467;-57
2023/03/24 08:01:54;;;;;;;14.88;7.03;;;;;;;11.35;100.00;163532.53;5072336;28;20020;-58
2023/03/24 08:04:20;;;;;;;17.95;6.88;;;;;;;11.46;100.00;163559.50;5071459;28;20468;-58
2023/03/24 08:06:45;;;;;;;22.50;7.03;;;;;;;11.32;100.00;163524.41;5072693;28;20036;-58
2023/03/24 08:09:12;;;;;;;5.78;4.70;;;;;;;11.14;100.00;163475.78;5072629;28;20380;-58
2023/03/24 08:11:38;;;;;;;17.73;6.78;;;;;;;11.32;100.00;163524.41;5071148;28;20119;-58
2023/03/24 08:14:03;;;;;;;24.10;6.72;;;;;;;11.57;100.00;163590.59;5072182;28;20089;-58
2023/03/24 08:16:29;;;;;;;18.05;7.45;;;;;;;11.43;100.00;163554.09;5070630;28;20491;-58
2023/03/24 08:18:57;;;;;;;11.45;5.32;;;;;;;11.53;100.00;163579.81;5071698;28;20036;-58
2023/03/24 08:21:23;;;;;;;11.85;5.13;;;;;;;11.59;100.00;163594.63;5070983;28;20040;-58
2023/03/24 08:23:48;;;;;;;13.20;5.80;;;;;;;11.36;100.00;163535.19;5071757;28;20023;-57
2023/03/24 08:26:14;;;;;;;18.85;5.32;;;;;;;11.39;100.00;163543.31;5066434;28;20445;-58
2023/03/24 08:28:40;;;;;;;19.50;6.47;;;;;;;11.31;100.00;163521.72;5071451;28;20046;-58
2023/03/24 08:31:05;;;;;;;13.27;4.57;;;;;;;11.36;100.00;163533.88;5067825;28;20094;-57
2023/03/24 08:33:31;;;;;;;17.58;7.53;;;;;;;11.35;100.00;163532.53;5070199;28;20024;-57
2023/03/24 08:35:56;;;;;;;29.58;6.93;;;;;;;11.15;100.00;163479.88;5069601;28;20418;-57
2023/03/24 08:38:29;;;;;;;19.83;7.72;;;;;;;11.07;100.00;163459.59;5071304;28;20526;-58
2023/03/24 08:40:54;;;;;;;13.23;5.25;;;;;;;11.04;100.00;163451.50;5067944;28;20121;-57
2023/03/24 08:43:22;;;;;;;22.27;7.10;;;;;;;11.05;100.00;163452.84;5071040;28;20028;-58
2023/03/24 08:45:47;;;;;;;14.25;6.10;;;;;;;11.48;100.00;163564.94;5070147;28;20043;-58
2023/03/24 08:48:12;;;;;;;45.80;9.95;;;;;;;11.85;100.00;163662.19;5070449;28;20021;-58
2023/03/24 08:50:40;;;;;;;11.18;4.20;;;;;;;12.58;100.00;163854.09;5069978;28;20044;-58
2023/03/24 08:53:06;;;;;;;16.58;5.30;;;;;;;12.63;100.00;163867.59;5069676;28;20771;-58
2023/03/24 08:55:32;;;;;;;12.50;5.47;;;;;;;12.44;100.00;163817.59;5068409;28;20511;-58
2023/03/24 08:57:58;;;;;;;12.60;4.03;;;;;;;12.64;100.00;163868.97;5070886;28;20078;-58
2023/03/24 09:00:24;;;;;;;17.23;5.95;;;;;;;12.46;100.00;163823.00;5069430;28;20556;-58
2023/03/24 09:02:52;;;;;;;15.63;4.93;;;;;;;12.33;100.00;163787.88;5071092;28;20024;-58
2023/03/24 09:05:19;;;;;;;9.90;5.88;;;;;;;11.86;100.00;163664.91;5070071;28;20039;-58
2023/03/24 09:07:45;;;;;;;13.20;5.00;;;;;;;11.55;100.00;163583.84;5069582;28;20031;-58
2023/03/24 09:10:11;;;;;;;11.95;4.90;;;;;;;11.55;100.00;163583.84;5069883;28;20458;-58
2023/03/24 09:12:37;;;;;;;14.55;5.63;;;;;;;12.19;100.00;163752.75;5070734;28;20037;-58
2023/03/24 09:15:05;;;;;;;18.17;5.25;;;;;;;12.27;100.00;163773.00;5068887;28;20054;-58
2023/03/24 09:17:30;;;;;;;14.30;5.63;;;;;;;12.91;100.00;163940.63;5071154;28;20055;-58
2023/03/24 09:19:55;;;;;;;12.70;4.10;;;;;;;13.87;100.00;164190.75;5068851;28;20068;-58
2023/03/24 09:22:21;;;;;;;12.07;3.97;;;;;;;14.12;100.00;164257.03;5067307;28;20025;-58
2023/03/24 09:24:48;;;;;;;8.90;3.13;;;;;;;13.09;100.00;163987.91;5068602;28;20048;-58
2023/03/24 09:27:14;;;;;;;10.10;4.60;;;;;;;12.78;100.00;163906.81;5070956;28;20032;-58
2023/03/24 09:29:39;;;;;;;8.55;3.45;;;;;;;12.78;100.00;163906.81;5068948;28;20040;-58
2023/03/24 09:32:05;;;;;;;7.50;3.50;;;;;;;12.39;100.00;163804.09;5070373;28;20074;-58
2023/03/24 09:34:31;;;;;;;9.52;3.35;;;;;;;12.26;100.00;163770.28;5070741;28;20017;-58
2023/03/24 09:36:56;;;;;;;7.85;3.22;;;;;;;12.32;100.00;163786.50;5068495;28;20036;-58
2023/03/24 09:39:22;;;;;;;9.77;3.45;;;;;;;12.75;100.00;163898.69;5070029;28;20021;-58
2023/03/24 09:41:49;;;;;;;15.93;5.90;;;;;;;13.51;100.00;164096.13;5065863;28;20041;-58
2023/03/24 09:44:28;;;;;;;21.80;5.40;;;;;;;14.04;100.00;164235.38;5070892;28;20111;-58
2023/03/24 09:47:04;;;;;;;9.90;4.20;;;;;;;13.40;100.00;164069.09;5068522;28;20050;-58
2023/03/24 09:49:33;;;;;;;9.52;4.05;;;;;;;13.10;100.00;163989.25;5070905;28;20032;-58
2023/03/24 09:52:10;;;;;;;22.35;6.45;;;;;;;12.66;100.00;163874.34;5068701;28;20062;-58
2023/03/24 09:54:58;;;;;;;15.95;5.55;;;;;;;12.16;100.00;163743.31;5070334;28;20052;-58
2023/03/24 09:57:39;;;;;;;16.73;5.88;;;;;;;12.53;100.00;163840.59;5069178;28;20055;-58
2023/03/24 10:00:26;;;;;;;10.88;4.53;;;;;;;12.66;100.00;163875.72;5068438;28;20028;-58
2023/03/24 10:02:52;;;;;;;22.25;5.00;;;;;;;12.87;100.00;163928.44;5067701;28;20019;-58
2023/03/24 10:05:29;;;;;;;9.75;3.65;;;;;;;13.51;100.00;164097.50;5069476;28;20384;-58
2023/03/24 10:08:22;;;;;;;18.58;6.50;;;;;;;13.81;100.00;164175.94;5070325;28;20081;-58
2023/03/24 10:11:09;;;;;;;10.57;3.60;;;;;;;13.79;100.00;164170.50;5073115;28;20040;-58
2023/03/24 10:13:56;;;;;;;23.83;5.40;;;;;;;13.63;100.00;164129.94;5074734;28;20556;-58
2023/03/24 10:16:26;;;;;;;10.95;3.92;;;;;;;13.16;100.00;164006.84;5072972;28;20128;-58
2023/03/24 10:18:59;;;;;;;8.48;3.78;;;;;;;13.44;100.00;164079.91;5074203;28;20052;-58
2023/03/24 10:21:33;;;;;;;10.02;3.80;;;;;;;13.29;100.00;164040.59;5073363;28;20051;-58
2023/03/24 10:24:05;;;;;;;6.70;3.42;;;;;;;13.15;100.00;164002.75;5074225;28;20112;-58
2023/03/24 10:26:45;;;;;;;14.70;4.82;;;;;;;13.10;100.00;163990.63;5073168;28;20047;-58
2023/03/24 10:29:16;;;;;;;11.80;5.72;;;;;;;13.17;100.00;164008.19;5069689;28;20032;-58
2023/03/24 10:31:49;;;;;;;19.25;6.63;;;;;;;13.02;100.00;163970.31;5072683;28;20044;-58
2023/03/24 10:34:14;;;;;;;15.35;3.30;;;;;;;13.13;100.00;163997.38;5074173;28;20031;-57
2023/03/24 10:36:40;;;;;;;13.77;5.18;;;;;;;13.39;100.00;164066.38;5072552;28;20044;-58
2023/03/24 10:39:13;;;;;;;8.52;4.35;;;;;;;13.53;100.00;164102.88;5059975;28;20044;-57
2023/03/24 10:41:41;;;;;;;8.30;3.65;;;;;;;14.19;100.00;164275.97;5060783;28;20121;-58
2023/03/24 10:44:07;;;;;;;6.53;2.65;;;;;;;14.59;100.00;164380.19;5070599;28;20097;-58
2023/03/24 10:46:35;;;;;;;12.63;3.67;;;;;;;14.13;100.00;164259.75;5072689;28;20111;-58
2023/03/24 10:49:14;;;;;;;8.25;4.05;;;;;;;13.60;100.00;164121.78;5074033;28;20060;-58
2023/03/24 10:51:48;;;;;;;11.50;4.72;;;;;;;13.93;100.00;164208.38;5072181;28;20036;-58
2023/03/24 10:54:22;;;;;;;12.60;3.60;;;;;;;13.66;100.00;164135.34;5074286;28;20121;-58
2023/03/24 10:56:56;;;;;;;11.38;5.45;;;;;;;13.29;100.00;164040.59;5072306;28;20040;-58
2023/03/24 10:59:36;;;;;;;16.15;6.20;;;;;;;13.24;100.00;164027.09;5073570;28;20383;-58
2023/03/24 11:02:20;;;;;;;9.02;4.45;;;;;;;13.24;100.00;164027.09;5072078;28;20048;-58
2023/03/24 11:04:55;;;;;;;8.13;3.53;;;;;;;12.82;100.00;163916.28;5065598;28;20017;-58
2023/03/24 11:07:23;;;;;;;8.75;2.88;;;;;;;12.85;100.00;163924.34;5051956;28;20045;-58
2023/03/24 11:10:17;;;;;;;9.60;3.58;;;;;;;13.42;100.00;164073.13;5068292;28;20047;-58
2023/03/24 11:13:01;;;;;;;9.20;2.97;;;;;;;13.49;100.00;164092.06;5070984;28;20053;-58
2023/03/24 11:15:29;;;;;;;17.55;5.25;;;;;;;13.13;100.00;163997.38;5070900;28;20033;-58
2023/03/24 11:18:02;;;;;;;13.07;5.28;;;;;;;13.14;100.00;164001.41;5072831;28;20555;-58
2023/03/24 11:20:35;;;;;;;7.30;2.88;;;;;;;12.73;100.00;163891.94;5071298;28;20048;-58
2023/03/24 11:23:05;;;;;;;9.73;4.38;;;;;;;12.60;100.00;163858.13;5072486;28;20062;-58
2023/03/24 11:25:34;;;;;;;7.15;3.35;;;;;;;12.46;100.00;163821.66;5071788;28;20171;-58
2023/03/24 11:28:07;;;;;;;23.67;6.97;;;;;;;12.51;100.00;163835.16;5072637;28;20173;-57
2023/03/24 11:30:43;;;;;;;10.77;4.15;;;;;;;12.73;100.00;163893.31;5071281;28;20127;-58